Time;durP1;ratioP1;P1;durP2;ratioP2;P2;SDS_P1;SDS_P2;PMS_P1;PMS_P2;Temp;Humidity;BMP_temperature;BMP_pressure;BME280_temperature;BME280_humidity;BME280_pressure;Samples;Min_cycle;Max_cycle;Signal;HPM_P1;HPM_P2
2023/11/21 00:00:22;;;;;;;19.30;12.38;;;;;;;9.33;100.00;100942.16;4905128;29;20044;-68
2023/11/21 00:03:11;;;;;;;19.05;11.77;;;;;;;9.32;100.00;100948.66;4922181;29;20074;-68
2023/11/21 00:06:00;;;;;;;18.55;10.45;;;;;;;9.32;100.00;100947.84;4910323;29;20091;-68
2023/11/21 00:08:48;;;;;;;22.85;12.98;;;;;;;9.30;100.00;100953.53;4923530;29;20106;-69
2023/11/21 00:11:37;;;;;;;20.38;11.95;;;;;;;9.29;100.00;100957.34;4909954;29;20145;-68
2023/11/21 00:14:26;;;;;;;22.05;12.18;;;;;;;9.30;100.00;100960.88;4921348;29;20142;-68
2023/11/21 00:17:14;;;;;;;18.23;11.55;;;;;;;9.28;100.00;100955.69;4922630;29;20496;-68
2023/11/21 00:20:06;;;;;;;20.13;11.65;;;;;;;9.27;100.00;100958.69;4936889;29;20390;-68
2023/11/21 00:22:54;;;;;;;20.38;11.75;;;;;;;9.26;100.00;100957.03;4948441;29;20428;-67
2023/11/21 00:25:42;;;;;;;20.27;12.13;;;;;;;9.24;100.00;100954.56;4935712;29;20044;-69
2023/11/21 00:28:30;;;;;;;21.63;12.80;;;;;;;9.24;100.00;100956.47;4935748;29;20204;-68
2023/11/21 00:31:18;;;;;;;20.70;12.23;;;;;;;9.23;100.00;100958.34;4937406;29;20148;-69
2023/11/21 00:34:06;;;;;;;21.95;12.45;;;;;;;9.22;100.00;100956.72;4921937;29;20058;-68
2023/11/21 00:36:54;;;;;;;20.00;13.35;;;;;;;9.23;100.00;100952.91;4936190;29;20054;-69
2023/11/21 00:39:42;;;;;;;20.90;12.32;;;;;;;9.23;100.00;100963.78;4928901;29;20139;-68
2023/11/21 00:42:33;;;;;;;21.23;13.85;;;;;;;9.23;100.00;100962.97;4929428;29;20052;-69
2023/11/21 00:45:23;;;;;;;20.50;12.02;;;;;;;9.21;100.00;100965.94;4922559;29;20075;-68
2023/11/21 00:48:13;;;;;;;19.88;12.38;;;;;;;9.19;100.00;100968.13;4921589;29;20079;-68
2023/11/21 00:51:01;;;;;;;24.50;13.43;;;;;;;9.17;100.00;100967.56;4935122;29;20054;-68
2023/11/21 00:53:49;;;;;;;24.42;13.70;;;;;;;9.17;100.00;100964.84;4935824;29;20138;-68
2023/11/21 00:56:38;;;;;;;23.05;13.88;;;;;;;9.16;100.00;100968.59;4920943;29;20088;-67
2023/11/21 00:59:26;;;;;;;21.17;12.85;;;;;;;9.14;100.00;100968.88;4916892;29;20055;-67
2023/11/21 01:02:14;;;;;;;20.48;12.73;;;;;;;9.13;100.00;100972.66;4929086;29;20142;-67
2023/11/21 01:05:02;;;;;;;20.52;12.80;;;;;;;9.13;100.00;100966.41;4929437;29;20056;-67
2023/11/21 01:07:50;;;;;;;21.15;12.63;;;;;;;9.10;100.00;100977.81;4919868;29;20050;-68
2023/11/21 01:10:38;;;;;;;19.83;12.32;;;;;;;9.11;100.00;100982.97;4922974;29;20128;-68
2023/11/21 01:13:27;;;;;;;20.90;12.68;;;;;;;9.10;100.00;100988.66;4948464;29;20062;-67
2023/11/21 01:16:15;;;;;;;21.45;12.25;;;;;;;9.10;100.00;100991.38;4934424;29;20055;-68
2023/11/21 01:19:04;;;;;;;18.85;12.27;;;;;;;9.12;100.00;100997.41;4927386;29;20070;-67
2023/11/21 01:21:52;;;;;;;18.55;10.88;;;;;;;9.14;100.00;101006.13;4947392;29;20048;-68
2023/11/21 01:24:42;;;;;;;21.67;11.93;;;;;;;9.14;100.00;101009.66;4920548;29;20467;-68
2023/11/21 01:27:32;;;;;;;18.90;11.38;;;;;;;9.14;100.00;101014.28;4920827;29;20121;-67
2023/11/21 01:30:20;;;;;;;18.58;11.52;;;;;;;9.14;100.00;101014.28;4921449;29;20544;-68
2023/11/21 01:33:08;;;;;;;21.27;11.95;;;;;;;9.14;100.00;101008.84;4948643;29;20059;-68
2023/11/21 01:35:56;;;;;;;19.70;11.60;;;;;;;9.14;100.00;101019.72;4935250;29;20195;-66
2023/11/21 01:38:45;;;;;;;17.90;12.00;;;;;;;9.15;100.00;101026.78;4915051;29;20051;-68
2023/11/21 01:41:34;;;;;;;22.42;11.88;;;;;;;9.15;100.00;101029.50;4907496;29;20464;-72
2023/11/21 01:44:24;;;;;;;17.17;11.40;;;;;;;9.15;100.00;101033.03;4921463;29;20126;-68
2023/11/21 01:47:12;;;;;;;19.52;12.10;;;;;;;9.16;100.00;101022.97;4935095;29;20076;-67
2023/11/21 01:50:00;;;;;;;20.30;11.88;;;;;;;9.16;100.00;101029.25;4906880;29;20051;-67
2023/11/21 01:52:49;;;;;;;19.90;12.02;;;;;;;9.14;100.00;101025.97;4935081;29;20056;-68
2023/11/21 01:55:38;;;;;;;20.45;11.02;;;;;;;9.13;100.00;101018.06;4921739;29;20428;-68
2023/11/21 01:58:26;;;;;;;17.35;11.15;;;;;;;9.11;100.00;101014.75;4921196;29;20527;-68
2023/11/21 02:01:14;;;;;;;23.67;12.75;;;;;;;9.05;100.00;101003.03;4933866;29;20060;-68
2023/11/21 02:04:04;;;;;;;22.92;12.85;;;;;;;9.03;100.00;101021.47;4921021;29;20138;-68
2023/11/21 02:06:52;;;;;;;25.70;14.18;;;;;;;9.03;100.00;101023.38;4934289;29;20056;-69
2023/11/21 02:09:45;;;;;;;23.73;14.40;;;;;;;9.00;100.00;101034.75;4920447;29;20163;-68
2023/11/21 02:12:34;;;;;;;24.05;14.20;;;;;;;8.95;100.00;101032.78;4934708;29;20421;-68
2023/11/21 02:15:26;;;;;;;20.55;13.60;;;;;;;8.90;100.00;101041.69;4921352;29;20052;-68
2023/11/21 02:18:15;;;;;;;19.10;12.52;;;;;;;8.89;100.00;101045.47;4917376;29;20044;-68
2023/11/21 02:21:05;;;;;;;21.38;13.32;;;;;;;8.89;100.00;101041.94;4946270;28;20186;-68
2023/11/21 02:23:55;;;;;;;23.15;13.52;;;;;;;8.88;100.00;101049.28;4932634;29;20051;-68
2023/11/21 02:26:43;;;;;;;19.75;11.90;;;;;;;8.88;100.00;101043.84;4907653;29;20050;-68
2023/11/21 02:29:31;;;;;;;17.55;11.50;;;;;;;8.84;100.00;101048.13;4919403;29;20405;-68
2023/11/21 02:32:22;;;;;;;18.77;12.63;;;;;;;8.84;100.00;101053.56;4925686;29;20044;-68
2023/11/21 02:35:12;;;;;;;16.52;11.70;;;;;;;8.84;100.00;101053.56;4932772;29;20052;-68
2023/11/21 02:38:00;;;;;;;14.88;10.98;;;;;;;8.82;100.00;101058.41;4923124;29;20051;-69
2023/11/21 02:40:49;;;;;;;15.98;11.30;;;;;;;8.82;100.00;101055.69;4921555;29;20132;-68
2023/11/21 02:43:38;;;;;;;15.85;11.07;;;;;;;8.81;100.00;101062.22;4924381;29;20051;-68
2023/11/21 02:46:27;;;;;;;15.80;10.90;;;;;;;8.79;100.00;101061.66;4950118;29;20055;-68
2023/11/21 02:49:15;;;;;;;14.80;10.70;;;;;;;8.78;100.00;101060.00;4923408;29;20048;-68
2023/11/21 02:52:03;;;;;;;15.25;10.55;;;;;;;8.76;100.00;101056.72;4911867;29;20508;-68
2023/11/21 02:54:52;;;;;;;15.93;11.10;;;;;;;8.76;100.00;101067.59;4944297;29;20111;-67
2023/11/21 02:57:40;;;;;;;17.33;11.27;;;;;;;8.74;100.00;101064.28;4934455;29;20071;-67
2023/11/21 03:00:28;;;;;;;17.52;11.07;;;;;;;8.71;100.00;101049.31;4941062;29;20575;-67
2023/11/21 03:03:16;;;;;;;15.68;10.27;;;;;;;8.70;100.00;101060.41;4923735;29;20080;-67
2023/11/21 03:06:08;;;;;;;14.45;9.75;;;;;;;8.71;100.00;101064.81;4894827;29;20134;-67
2023/11/21 03:08:56;;;;;;;13.75;9.60;;;;;;;8.71;100.00;101059.38;4906014;29;20143;-68
2023/11/21 03:11:45;;;;;;;14.05;9.98;;;;;;;8.73;100.00;101062.63;4913333;29;20080;-67
2023/11/21 03:14:33;;;;;;;12.85;9.45;;;;;;;8.73;100.00;101068.91;4895134;29;20122;-67
2023/11/21 03:17:21;;;;;;;14.93;10.05;;;;;;;8.73;100.00;101065.34;4922180;29;20052;-67
2023/11/21 03:20:13;;;;;;;13.55;9.50;;;;;;;8.72;100.00;101066.44;4917710;29;20056;-68
2023/11/21 03:23:01;;;;;;;16.10;10.05;;;;;;;8.69;100.00;101070.47;4898646;29;20052;-66
2023/11/21 03:25:49;;;;;;;14.57;9.60;;;;;;;8.67;100.00;101079.94;4923326;29;20076;-66
2023/11/21 03:28:37;;;;;;;14.82;9.93;;;;;;;8.67;100.00;101071.78;4927737;29;20082;-68
2023/11/21 03:31:26;;;;;;;14.52;10.25;;;;;;;8.66;100.00;101078.28;4931811;29;20130;-67
2023/11/21 03:34:28;;;;;;;15.45;9.50;;;;;;;8.67;100.00;101074.50;4924783;29;20116;-62
2023/11/21 03:37:16;;;;;;;16.98;10.27;;;;;;;8.70;100.00;101074.81;4936932;29;20056;-67
2023/11/21 03:40:04;;;;;;;13.38;9.63;;;;;;;8.73;100.00;101078.94;4907116;29;20362;-68
2023/11/21 03:42:53;;;;;;;14.57;9.52;;;;;;;8.69;100.00;101088.66;4893234;29;20051;-68
2023/11/21 03:45:41;;;;;;;13.75;9.43;;;;;;;8.68;100.00;101092.44;4892419;29;20055;-67
2023/11/21 03:48:30;;;;;;;15.38;9.30;;;;;;;8.68;100.00;101093.28;4890918;29;20192;-68
2023/11/21 03:51:18;;;;;;;14.73;9.85;;;;;;;8.69;100.00;101083.25;4917100;29;20063;-68
2023/11/21 03:54:06;;;;;;;12.38;8.48;;;;;;;8.69;100.00;101088.66;4917771;29;20200;-68
2023/11/21 03:56:54;;;;;;;17.00;10.13;;;;;;;8.70;100.00;101080.25;4931005;29;20417;-68
2023/11/21 03:59:43;;;;;;;13.52;9.13;;;;;;;8.68;100.00;101087.00;4931033;29;20416;-68
2023/11/21 04:02:31;;;;;;;14.13;9.30;;;;;;;8.66;100.00;101094.56;4904517;29;20052;-68
2023/11/21 04:05:21;;;;;;;13.43;9.15;;;;;;;8.65;100.00;101092.94;4905348;29;20056;-68
2023/11/21 04:08:09;;;;;;;12.82;9.07;;;;;;;8.63;100.00;101097.78;4918148;29;20521;-67
2023/11/21 04:10:58;;;;;;;13.80;9.25;;;;;;;8.61;100.00;101100.78;4917767;29;20127;-67
2023/11/21 04:13:46;;;;;;;14.50;9.63;;;;;;;8.59;100.00;101102.91;4891891;29;20071;-68
2023/11/21 04:16:34;;;;;;;12.70;9.43;;;;;;;8.58;100.00;101103.16;4904956;29;20465;-68
2023/11/21 04:19:23;;;;;;;13.27;9.82;;;;;;;8.58;100.00;101114.00;4917958;29;20052;-68
2023/11/21 04:22:11;;;;;;;13.23;9.38;;;;;;;8.55;100.00;101125.38;4919165;29;20131;-68
2023/11/21 04:24:59;;;;;;;12.85;9.60;;;;;;;8.53;100.00;101129.16;4918785;29;20127;-68
2023/11/21 04:27:48;;;;;;;13.50;9.43;;;;;;;8.52;100.00;101132.13;4918044;29;20139;-68
2023/11/21 04:30:36;;;;;;;12.57;8.95;;;;;;;8.50;100.00;101129.66;4916845;29;20382;-68
2023/11/21 04:33:25;;;;;;;12.65;9.32;;;;;;;8.51;100.00;101134.03;4918526;29;20052;-68
2023/11/21 04:36:13;;;;;;;12.45;9.18;;;;;;;8.52;100.00;101132.94;4930640;29;20133;-68
2023/11/21 04:39:01;;;;;;;12.63;9.40;;;;;;;8.51;100.00;101141.34;4925931;29;20566;-68
2023/11/21 04:41:50;;;;;;;13.02;9.20;;;;;;;8.49;100.00;101146.19;4918039;29;20059;-68
2023/11/21 04:44:40;;;;;;;12.38;9.02;;;;;;;8.49;100.00;101144.31;4918305;29;20147;-68
2023/11/21 04:47:29;;;;;;;12.05;8.90;;;;;;;8.47;100.00;101145.63;4916899;29;20059;-68
2023/11/21 04:50:18;;;;;;;12.30;9.23;;;;;;;8.45;100.00;101161.34;4915468;29;20524;-68
2023/11/21 04:53:06;;;;;;;12.32;8.60;;;;;;;8.46;100.00;101161.06;4905209;29;20136;-68
2023/11/21 04:55:53;;;;;;;13.05;9.48;;;;;;;8.47;100.00;101170.06;4903071;29;20131;-69
2023/11/21 04:58:41;;;;;;;11.20;8.63;;;;;;;8.41;100.00;101168.31;4915991;29;20052;-69
2023/11/21 05:01:30;;;;;;;12.65;9.05;;;;;;;8.42;100.00;101165.38;4924161;29;20064;-70
2023/11/21 05:04:18;;;;;;;12.68;8.73;;;;;;;8.45;100.00;101174.91;4919730;29;20500;-69
2023/11/21 05:07:07;;;;;;;12.23;8.98;;;;;;;8.45;100.00;101181.16;4920610;29;20039;-69
2023/11/21 05:09:55;;;;;;;11.65;8.48;;;;;;;8.45;100.00;101183.88;4930299;29;20043;-69
2023/11/21 05:12:43;;;;;;;12.07;8.18;;;;;;;8.46;100.00;101185.50;4935280;29;20052;-69
2023/11/21 05:15:33;;;;;;;13.77;8.43;;;;;;;8.47;100.00;101183.66;4935022;29;20055;-68
2023/11/21 05:18:21;;;;;;;12.15;8.48;;;;;;;8.48;100.00;101190.72;4958355;28;20044;-69
2023/11/21 05:21:09;;;;;;;13.60;8.48;;;;;;;8.47;100.00;101181.75;4946356;29;20051;-69
2023/11/21 05:23:57;;;;;;;11.52;8.43;;;;;;;8.47;100.00;101183.66;4920853;29;20140;-69
2023/11/21 05:26:45;;;;;;;11.45;7.93;;;;;;;8.48;100.00;101186.09;4920864;29;20401;-67
2023/11/21 05:29:33;;;;;;;12.15;7.95;;;;;;;8.48;100.00;101196.16;4934332;29;20048;-69
2023/11/21 05:32:22;;;;;;;11.45;7.72;;;;;;;8.49;100.00;101195.91;4935554;29;20200;-69
2023/11/21 05:35:15;;;;;;;10.98;7.68;;;;;;;8.51;100.00;101196.50;4908604;29;20523;-70
2023/11/21 05:38:05;;;;;;;9.85;6.82;;;;;;;8.48;100.00;101202.41;4935906;29;20048;-69
2023/11/21 05:40:53;;;;;;;11.25;7.80;;;;;;;8.47;100.00;101206.19;4920379;29;20079;-69
2023/11/21 05:43:41;;;;;;;10.55;6.93;;;;;;;8.45;100.00;101213.75;4934961;29;20058;-69
2023/11/21 05:46:29;;;;;;;9.73;6.70;;;;;;;8.45;100.00;101213.75;4921497;29;20039;-68
2023/11/21 05:49:17;;;;;;;9.90;6.80;;;;;;;8.45;100.00;101211.03;4936624;28;20052;-68
2023/11/21 05:52:05;;;;;;;9.60;6.63;;;;;;;8.45;100.00;101211.03;4908675;29;20135;-69
2023/11/21 05:54:53;;;;;;;11.82;7.10;;;;;;;8.43;100.00;101224.03;4935317;29;20044;-68
2023/11/21 05:57:43;;;;;;;9.77;7.57;;;;;;;8.41;100.00;101228.06;4934429;29;20183;-69
2023/11/21 06:00:32;;;;;;;10.15;7.30;;;;;;;8.40;100.00;101235.38;4933700;29;20059;-69
2023/11/21 06:03:20;;;;;;;10.88;7.32;;;;;;;8.39;100.00;101230.97;4890953;29;20048;-70
2023/11/21 06:06:08;;;;;;;10.30;7.30;;;;;;;8.38;100.00;101239.38;4915519;29;20421;-70
2023/11/21 06:08:57;;;;;;;12.23;8.45;;;;;;;8.36;100.00;101245.03;4920096;29;20509;-70
2023/11/21 06:11:46;;;;;;;11.60;8.23;;;;;;;8.35;100.00;101251.56;4908703;29;20417;-70
2023/11/21 06:14:34;;;;;;;11.20;7.63;;;;;;;8.36;100.00;101244.22;4906829;29;20095;-69
2023/11/21 06:17:24;;;;;;;11.35;7.53;;;;;;;8.35;100.00;101243.41;4905488;29;20056;-70
2023/11/21 06:20:18;;;;;;;10.75;7.57;;;;;;;8.33;100.00;101246.34;4914005;29;20052;-69
2023/11/21 06:23:06;;;;;;;11.75;8.05;;;;;;;8.22;100.00;101257.25;4919898;29;20529;-69
2023/11/21 06:25:54;;;;;;;10.40;8.15;;;;;;;8.14;100.00;101254.94;4906679;29;20051;-68
2023/11/21 06:28:42;;;;;;;11.45;8.30;;;;;;;8.10;100.00;101250.00;4904597;29;20044;-68
2023/11/21 06:31:32;;;;;;;10.82;7.95;;;;;;;8.19;100.00;101263.19;4905489;29;20113;-69
2023/11/21 06:34:21;;;;;;;10.65;7.68;;;;;;;8.23;100.00;101261.63;4923147;29;20052;-68
2023/11/21 06:37:09;;;;;;;11.77;7.85;;;;;;;8.23;100.00;101259.75;4919417;29;20052;-68
2023/11/21 06:39:58;;;;;;;12.40;8.45;;;;;;;8.27;100.00;101260.06;4904596;29;20416;-68
2023/11/21 06:42:46;;;;;;;13.15;8.18;;;;;;;8.29;100.00;101261.47;4905534;29;20421;-68
2023/11/21 06:45:35;;;;;;;13.20;8.70;;;;;;;8.31;100.00;101272.09;4905318;29;20054;-67
2023/11/21 06:48:23;;;;;;;12.55;8.13;;;;;;;8.32;100.00;101268.31;4919201;29;20353;-69
2023/11/21 06:51:11;;;;;;;16.48;9.23;;;;;;;8.33;100.00;101272.69;4932559;29;20040;-68
2023/11/21 06:53:59;;;;;;;14.10;8.70;;;;;;;8.34;100.00;101266.19;4905058;29;20146;-67
2023/11/21 06:56:47;;;;;;;18.27;9.68;;;;;;;8.35;100.00;101272.47;4919714;29;20055;-67
2023/11/21 06:59:35;;;;;;;16.35;10.02;;;;;;;8.34;100.00;101282.47;4918177;29;20115;-68
2023/11/21 07:02:23;;;;;;;19.08;10.32;;;;;;;8.36;100.00;101280.34;4920234;29;20055;-67
2023/11/21 07:05:14;;;;;;;16.88;10.25;;;;;;;8.39;100.00;101288.00;4233640;29;10000607;-67
2023/11/21 07:08:04;;;;;;;15.98;10.45;;;;;;;8.39;100.00;101290.72;4920941;29;20059;-68
2023/11/21 07:10:52;;;;;;;16.02;10.48;;;;;;;8.40;100.00;101297.03;4907444;29;20452;-68
2023/11/21 07:13:41;;;;;;;18.45;10.45;;;;;;;8.38;100.00;101293.69;4934578;29;20397;-68
2023/11/21 07:16:30;;;;;;;16.58;11.35;;;;;;;8.39;100.00;101300.75;4935424;29;20055;-67
2023/11/21 07:19:19;;;;;;;17.65;11.35;;;;;;;8.40;100.00;101302.44;4935292;29;20091;-68
2023/11/21 07:22:08;;;;;;;17.95;12.25;;;;;;;8.41;100.00;101304.91;4946576;28;20488;-69
2023/11/21 07:24:56;;;;;;;17.25;11.48;;;;;;;8.42;100.00;101312.00;4934662;29;20044;-68
2023/11/21 07:27:44;;;;;;;19.58;12.05;;;;;;;8.44;100.00;101319.88;4934061;29;20122;-69
2023/11/21 07:30:32;;;;;;;17.83;11.55;;;;;;;8.47;100.00;101328.41;4944078;28;20047;-71
2023/11/21 07:33:21;;;;;;;16.45;11.50;;;;;;;8.49;100.00;101334.41;4937509;29;20465;-68
2023/11/21 07:36:10;;;;;;;15.60;10.45;;;;;;;8.52;100.00;101339.34;4934243;29;20555;-68
2023/11/21 07:38:58;;;;;;;14.45;10.38;;;;;;;8.52;100.00;101339.34;4921379;29;20106;-70
2023/11/21 07:41:48;;;;;;;15.45;10.07;;;;;;;8.52;100.00;101343.97;4940444;29;20103;-67
2023/11/21 07:44:37;;;;;;;14.23;10.00;;;;;;;8.52;100.00;101347.50;4942220;29;20103;-68
2023/11/21 07:47:27;;;;;;;19.88;9.65;;;;;;;8.53;100.00;101357.28;4920843;29;20316;-70
2023/11/21 07:50:15;;;;;;;14.07;10.55;;;;;;;8.55;100.00;101353.53;4948620;29;20075;-70
2023/11/21 07:53:05;;;;;;;15.30;10.55;;;;;;;8.54;100.00;101350.00;4945329;29;20055;-68
2023/11/21 07:55:53;;;;;;;18.50;11.98;;;;;;;8.53;100.00;101360.00;4946388;29;20054;-71
2023/11/21 07:58:41;;;;;;;18.85;12.48;;;;;;;8.54;100.00;101363.56;4956168;29;20052;-69
2023/11/21 08:01:29;;;;;;;15.75;11.60;;;;;;;8.55;100.00;101367.91;4950688;29;20095;-70
2023/11/21 08:04:18;;;;;;;16.15;11.40;;;;;;;8.57;100.00;101364.97;4951732;29;20071;-70
2023/11/21 08:07:06;;;;;;;16.60;10.35;;;;;;;8.59;100.00;101360.94;4950547;29;20118;-68
2023/11/21 08:09:54;;;;;;;15.05;10.60;;;;;;;8.60;100.00;101364.47;4946288;29;20508;-66
2023/11/21 08:12:42;;;;;;;15.70;10.10;;;;;;;8.61;100.00;101369.69;4935003;29;20049;-67
2023/11/21 08:15:33;;;;;;;14.35;9.68;;;;;;;8.62;100.00;101376.75;4936890;29;20469;-74
2023/11/21 08:18:22;;;;;;;15.88;10.70;;;;;;;8.61;100.00;101375.13;4933167;29;20416;-68
2023/11/21 08:21:12;;;;;;;15.88;11.07;;;;;;;8.63;100.00;101380.28;4948838;29;20146;-66
2023/11/21 08:24:00;;;;;;;17.60;10.85;;;;;;;8.63;100.00;101388.44;4928135;29;20550;-68
2023/11/21 08:26:48;;;;;;;15.23;10.98;;;;;;;8.63;100.00;101394.69;4935560;29;20048;-68
2023/11/21 08:29:36;;;;;;;16.33;10.70;;;;;;;8.65;100.00;101391.75;4918195;29;20054;-66
2023/11/21 08:32:25;;;;;;;18.75;11.05;;;;;;;8.65;100.00;101397.19;4935641;29;20190;-67
2023/11/21 08:35:13;;;;;;;18.50;11.15;;;;;;;8.66;100.00;101396.09;4948629;29;20386;-66
2023/11/21 08:38:01;;;;;;;17.77;11.00;;;;;;;8.69;100.00;101411.94;4923596;29;20052;-69
2023/11/21 08:40:49;;;;;;;22.02;12.48;;;;;;;8.70;100.00;101416.28;4922541;29;20059;-66
2023/11/21 08:43:41;;;;;;;17.48;12.43;;;;;;;8.65;100.00;101427.88;4937182;29;20393;-66
2023/11/21 08:46:29;;;;;;;19.15;12.00;;;;;;;8.64;100.00;101425.41;4923181;29;20043;-66
2023/11/21 08:49:17;;;;;;;21.80;13.55;;;;;;;8.65;100.00;101427.06;4937157;29;20058;-66
2023/11/21 08:52:06;;;;;;;20.90;12.90;;;;;;;8.64;100.00;101428.13;4936818;29;20059;-66
2023/11/21 08:54:57;;;;;;;23.90;13.85;;;;;;;8.66;100.00;101431.41;4936574;29;20048;-66
2023/11/21 08:57:46;;;;;;;22.85;13.35;;;;;;;8.68;100.00;101432.00;4935264;29;20126;-66
2023/11/21 09:00:34;;;;;;;21.13;13.00;;;;;;;8.70;100.00;101435.31;4947373;29;20071;-66
2023/11/21 09:03:22;;;;;;;23.48;13.43;;;;;;;8.73;100.00;101429.38;4922092;29;20052;-67
2023/11/21 09:06:14;;;;;;;27.80;14.75;;;;;;;8.77;100.00;101436.00;4936260;29;20051;-66
2023/11/21 09:09:04;;;;;;;23.42;13.35;;;;;;;8.79;100.00;101436.59;4936306;29;20098;-67
2023/11/21 09:11:52;;;;;;;24.00;12.85;;;;;;;8.82;100.00;101430.66;4947778;29;20047;-66
2023/11/21 09:14:40;;;;;;;26.67;14.80;;;;;;;8.84;100.00;101439.41;4922992;29;20044;-65
2023/11/21 09:17:28;;;;;;;26.52;14.50;;;;;;;8.85;100.00;101451.94;4947916;29;20079;-67
2023/11/21 09:20:17;;;;;;;30.60;15.15;;;;;;;8.85;100.00;101457.38;4935195;29;20134;-66
2023/11/21 09:23:05;;;;;;;32.15;16.83;;;;;;;8.84;100.00;101458.44;4935117;29;20058;-67
2023/11/21 09:25:56;;;;;;;29.02;15.05;;;;;;;8.84;100.00;101450.28;4935956;29;20058;-67
2023/11/21 09:28:47;;;;;;;27.60;16.25;;;;;;;8.82;100.00;101459.72;4934875;29;20075;-67
2023/11/21 09:31:36;;;;;;;33.97;17.55;;;;;;;8.83;100.00;101466.84;4908499;29;20048;-66
2023/11/21 09:34:24;;;;;;;31.55;17.08;;;;;;;8.83;100.00;101462.22;4922078;29;20532;-66
2023/11/21 09:37:12;;;;;;;30.33;16.95;;;;;;;8.86;100.00;101474.50;4935182;29;20070;-67
2023/11/21 09:40:01;;;;;;;36.13;18.10;;;;;;;8.87;100.00;101471.53;4947667;29;20051;-67
2023/11/21 09:42:56;;;;;;;32.95;18.02;;;;;;;8.90;100.00;101483.84;4934479;29;20055;-66
2023/11/21 09:45:53;;;;;;;31.75;17.45;;;;;;;8.91;100.00;101488.19;4922457;29;20568;-68
2023/11/21 09:48:41;;;;;;;37.65;18.83;;;;;;;8.91;100.00;101499.06;4934703;29;20416;-67
2023/11/21 09:51:33;;;;;;;33.10;18.65;;;;;;;8.90;100.00;101500.97;4936761;29;20419;-68
2023/11/21 09:54:21;;;;;;;38.33;17.90;;;;;;;8.90;100.00;101511.81;4933330;29;20054;-67
2023/11/21 09:57:09;;;;;;;29.05;16.45;;;;;;;8.91;100.00;101509.94;4935371;29;20115;-67
2023/11/21 10:00:03;;;;;;;30.23;17.45;;;;;;;8.91;100.00;101510.75;4935572;29;20050;-65
2023/11/21 10:02:53;;;;;;;32.58;18.05;;;;;;;8.94;100.00;101518.41;4929540;29;20135;-66
2023/11/21 10:05:44;;;;;;;30.70;17.42;;;;;;;8.98;100.00;101520.69;4917188;29;20056;-66
2023/11/21 10:08:33;;;;;;;34.67;18.77;;;;;;;8.98;100.00;101526.09;4902453;29;20048;-67
2023/11/21 10:11:38;;;;;;;33.38;17.05;;;;;;;8.98;100.00;101521.50;4904820;29;20056;-66
2023/11/21 10:14:28;;;;;;;32.45;17.38;;;;;;;9.00;100.00;101513.13;4902622;29;20048;-66
2023/11/21 10:17:21;;;;;;;33.72;18.60;;;;;;;9.02;100.00;101517.25;4903146;29;20082;-66
2023/11/21 10:20:13;;;;;;;39.22;19.95;;;;;;;9.03;100.00;101524.31;4915414;29;20044;-66
2023/11/21 10:23:02;;;;;;;38.53;19.67;;;;;;;9.04;100.00;101541.44;4922696;29;20497;-66
2023/11/21 10:25:54;;;;;;;37.72;19.05;;;;;;;9.05;100.00;101548.56;4915875;29;20059;-66
2023/11/21 10:28:59;;;;;;;40.00;19.65;;;;;;;9.06;100.00;101550.19;4902827;29;20497;-67
2023/11/21 10:31:50;;;;;;;37.53;19.40;;;;;;;9.07;100.00;101551.84;4913654;29;20046;-65
2023/11/21 10:34:38;;;;;;;40.47;18.17;;;;;;;9.06;100.00;101550.19;4885123;29;20449;-67
2023/11/21 10:37:27;;;;;;;27.83;15.50;;;;;;;9.09;100.00;101545.13;4902481;29;20048;-67
2023/11/21 10:40:15;;;;;;;30.92;14.93;;;;;;;9.15;100.00;101549.56;4915644;29;20052;-69
2023/11/21 10:43:10;;;;;;;33.92;18.25;;;;;;;9.19;100.00;101549.94;4915613;29;20521;-68
2023/11/21 10:45:59;;;;;;;35.97;18.90;;;;;;;9.23;100.00;101558.41;4904615;29;20088;-67
2023/11/21 10:48:54;;;;;;;39.42;20.83;;;;;;;9.21;100.00;101553.22;4927852;29;20130;-68
2023/11/21 10:51:44;;;;;;;36.92;21.90;;;;;;;9.16;100.00;101551.25;4889076;29;20494;-67
2023/11/21 10:54:32;;;;;;;38.20;21.58;;;;;;;9.16;100.00;101550.38;4915530;29;20499;-68
2023/11/21 10:57:21;;;;;;;42.58;22.08;;;;;;;9.15;100.00;101549.56;4903382;29;20541;-68
2023/11/21 11:00:13;;;;;;;41.60;22.70;;;;;;;9.15;100.00;101555.00;4919783;29;20056;-67
2023/11/21 11:03:01;;;;;;;41.72;22.80;;;;;;;9.18;100.00;101553.69;4919248;29;20059;-67
2023/11/21 11:05:54;;;;;;;41.30;21.98;;;;;;;9.17;100.00;101557.50;4894077;29;20079;-67
2023/11/21 11:08:42;;;;;;;36.60;20.35;;;;;;;9.18;100.00;101557.25;4905978;29;20485;-67
2023/11/21 11:11:31;;;;;;;35.17;19.63;;;;;;;9.19;100.00;101566.25;4890881;29;20100;-67
2023/11/21 11:14:19;;;;;;;33.72;18.38;;;;;;;9.21;100.00;101574.97;4929047;29;20079;-67
2023/11/21 11:17:08;;;;;;;31.30;17.45;;;;;;;9.23;100.00;101578.28;4919159;29;20051;-67
2023/11/21 11:19:57;;;;;;;26.10;15.25;;;;;;;9.22;100.00;101581.25;4919262;29;20051;-67
2023/11/21 11:23:16;;;;;;;21.10;12.90;;;;;;;9.22;100.00;101583.97;4909787;29;20047;-67
2023/11/21 11:26:43;;;;;;;18.05;12.25;;;;;;;9.26;100.00;101577.81;4906202;29;20052;-67
2023/11/21 11:29:44;;;;;;;17.83;11.57;;;;;;;9.32;100.00;101576.00;4905412;29;20048;-68
2023/11/21 11:33:12;;;;;;;21.40;13.25;;;;;;;9.35;100.00;101591.84;4916106;29;20121;-68
2023/11/21 11:36:21;;;;;;;19.50;13.32;;;;;;;9.33;100.00;101583.94;4908762;29;20047;-66
2023/11/21 11:39:30;;;;;;;20.05;13.00;;;;;;;9.30;100.00;101589.84;4916560;29;20183;-67
2023/11/21 11:42:19;;;;;;;23.38;14.95;;;;;;;9.28;100.00;101596.59;4930937;29;20064;-67
2023/11/21 11:45:20;;;;;;;21.23;13.90;;;;;;;9.26;100.00;101607.72;4930346;29;20242;-68
2023/11/21 11:48:13;;;;;;;19.02;13.32;;;;;;;9.27;100.00;101612.09;4885405;29;20056;-67
2023/11/21 11:51:08;;;;;;;20.38;14.57;;;;;;;9.25;100.00;101614.22;4929323;29;20079;-67
2023/11/21 11:53:56;;;;;;;20.65;14.68;;;;;;;9.21;100.00;101615.75;4918362;29;20524;-66
2023/11/21 11:56:44;;;;;;;23.38;14.10;;;;;;;9.15;100.00;101635.75;4905237;29;20049;-68
2023/11/21 12:00:26;;;;;;;20.27;14.43;;;;;;;9.12;100.00;101637.06;4904698;29;20044;-67
2023/11/21 12:03:14;;;;;;;20.63;13.93;;;;;;;9.14;100.00;101645.81;4918887;29;20382;-66
2023/11/21 12:06:02;;;;;;;21.38;14.52;;;;;;;9.18;100.00;101643.44;4905349;29;20047;-66
2023/11/21 12:08:51;;;;;;;18.58;12.93;;;;;;;9.17;100.00;101649.94;4903689;29;20051;-69
2023/11/21 12:11:43;;;;;;;19.92;13.63;;;;;;;9.16;100.00;101648.28;4908197;29;20120;-65
2023/11/21 12:14:31;;;;;;;24.10;14.95;;;;;;;9.18;100.00;101646.16;4923409;29;20057;-64
2023/11/21 12:17:20;;;;;;;20.92;14.02;;;;;;;9.18;100.00;101651.59;4929883;29;20100;-64
2023/11/21 12:20:14;;;;;;;24.67;15.10;;;;;;;9.17;100.00;101655.38;4924003;29;20175;-66
2023/11/21 12:23:03;;;;;;;21.63;13.93;;;;;;;9.17;100.00;101649.94;4919741;29;20504;-64
2023/11/21 12:25:51;;;;;;;24.75;14.80;;;;;;;9.16;100.00;101653.72;4928852;29;20108;-64
2023/11/21 12:28:39;;;;;;;26.58;15.27;;;;;;;9.20;100.00;101660.34;4921373;29;20068;-63
2023/11/21 12:31:29;;;;;;;23.58;14.77;;;;;;;9.21;100.00;101667.41;4923085;29;20044;-62
2023/11/21 12:34:17;;;;;;;22.65;15.13;;;;;;;9.20;100.00;101665.78;4916514;29;20107;-64
2023/11/21 12:37:05;;;;;;;23.27;14.45;;;;;;;9.19;100.00;101669.56;4933887;29;20177;-66
2023/11/21 12:39:57;;;;;;;21.45;13.57;;;;;;;9.17;100.00;101677.94;4917412;29;20055;-63
2023/11/21 12:42:51;;;;;;;20.63;13.73;;;;;;;9.18;100.00;101673.34;4925380;29;20489;-66
2023/11/21 12:45:39;;;;;;;18.95;13.45;;;;;;;9.23;100.00;101686.22;4894439;29;20059;-64
2023/11/21 12:48:27;;;;;;;20.10;13.68;;;;;;;9.22;100.00;101663.66;4920232;29;20051;-65
2023/11/21 12:51:15;;;;;;;21.20;14.20;;;;;;;9.25;100.00;101675.94;4919006;29;20052;-66
2023/11/21 12:54:05;;;;;;;22.08;14.02;;;;;;;9.24;100.00;101672.41;4918665;29;20412;-65